Main page
METAR-TAF:

METAR-TAF

Airports :

Sligo Airport

Sligo, Ireland

latitude: 54-16-49N, longitude: 8-35-57W, elevation: 3 m

Current weather observation

The report was made 36 minutes ago, at 09:30 UTC
Wind 15 kt from the West/Southwest
Temperature 8°C
Humidity 76%
Pressure 1031 hPa
Visibility: 8000 m
Few clouds at a height of 3800 ft
Broken clouds at a height of 4800 ft

METAR: EISG 240930Z 25015KT 8000 FEW038 BKN048 08/04 Q1031

Time: 10:06 (10:06 UTC)

Forecast

The report was made 2 hours and 6 minutes ago, at 08:00 UTC
Forecast valid from 24 at 09 UTC to 24 at 18 UTC
Wind 13 kt from the West/Southwest
Visibility 10 km or more
Scattered clouds at a height of 2000 ft
Broken clouds at a height of 3000 ft
Becoming
from 24 at 09 UTC to 24 at 12 UTC
Wind 19 kt from the West with gusts up to 29 kt
Becoming
from 24 at 16 UTC to 24 at 18 UTC
Wind 17 kt from the West/Northwest

TAF: EISG 240800Z 2409/2418 25013KT 9999 SCT020 BKN030 BECMG 2409/2412 28019G29KT BECMG 2416/2418 29017KT

Weather observations and forecasts of more than 4000 airports (METAR and TAF reports).

The available stations are represented by yellow and red dots on the map.

Hover mouse over dot to see the name of the station.

Then click to see weather observations and forecasts.

To change the map : click on the green buttons with a black cross to zoom in, on the green button with a dash to zoom out, or on the green arrows for adjacent maps.


METAR-TAF: